Flight Track Log - Related Links

Times and Time Zones

All times are in EDT time to prevent confusion due to time zone crossing. See the DAL268 flight status page for this flight to view local times or setup timezone preferences in your user account.

Time Position Orientation Groundspeed Altitude Reporting Facility
EDT Latitude Longitude Course Direction KTS MPH feet Rate Location/Type
Thu 11:51:07 PM 40.6370 -73.7800 264° West  Level FlightAware ADS-B
Thu 11:52:51 PM 40.6370 -73.7790 90° East 2 2 24 Level FlightAware ADS-B
Thu 11:53:53 PM 40.6380 -73.7790 360° North 2 2 26 Level FlightAware ADS-B
Thu 11:54:51 PM 40.6370 -73.7790 180° South 2 2 27 Level FlightAware ADS-B
Thu 11:56:50 PM 40.6360 -73.7790 180° South 2 2 28 Level FlightAware ADS-B
Thu 11:59:00 PM 40.8813 -73.5520 37° Northeast  Level FlightAware Approximate
Fri 12:00:00 AM 40.9905 -73.4482 30° Northeast  Level FlightAware Approximate
Fri 12:01:00 AM 41.1110 -73.3544 30° Northeast  Level FlightAware Approximate
Fri 12:02:00 AM 41.2289 -73.2575 29° Northeast  Level FlightAware Approximate
Fri 12:03:00 AM 41.3419 -73.1541 21° North  Level FlightAware Approximate
Fri 12:04:00 AM 41.4203 -73.0094 56° Northeast  Level FlightAware Approximate
Fri 12:04:47 AM 40.6350 -73.7770 143° Southeast 15 17  Level FlightAware ADS-B
Fri 12:05:31 AM 40.6350 -73.7780 270° West 53 Level FlightAware ADS-B
Fri 12:07:21 AM 40.6340 -73.7780 180° South 14 16 57 Level FlightAware ADS-B
Fri 12:07:53 AM 40.6330 -73.7780 180° South 19 22 69 Level FlightAware ADS-B
Fri 12:08:25 AM 40.6330 -73.7770 90° East 19 22 73 Level FlightAware ADS-B
Fri 12:08:46 AM 40.6320 -73.7760 143° Southeast 24 28 78 Level FlightAware ADS-B
Fri 12:09:05 AM 40.6320 -73.7750 90° East 26 30 82 Level FlightAware ADS-B
Fri 12:09:33 AM 40.6310 -73.7740 143° Southeast 27 31 86 Level FlightAware ADS-B
Fri 12:09:45 AM 40.6310 -73.7730 90° East 24 28 92 Level FlightAware ADS-B
Fri 12:11:11 AM 40.6300 -73.7710 123° Southeast 10 12 94 Level FlightAware ADS-B
Fri 12:11:52 AM 40.6290 -73.7710 180° South 13 15 122 Level FlightAware ADS-B
Fri 12:14:00 AM 40.8582 -73.5751 37° Northeast  Level FlightAware Approximate
Fri 12:14:32 AM 40.6280 -73.7720 37° Northeast 20 23  Level FlightAware ADS-B
Fri 12:15:32 AM 40.6390 -73.7960 301° West 165 190 383 Level FlightAware ADS-B
Fri 12:16:06 AM 40.6530 -73.8290 299° West 189 217 600 1,171 Climbing FlightAware ADS-B
Fri 12:16:13 AM 40.6540 -73.8400 277° West 199 229 800 1,200 Climbing FlightAware ADS-B
Fri 12:16:46 AM 40.6370 -73.8760 238° Southwest 234 269 1,400 984 Climbing FlightAware ADS-B
Fri 12:17:14 AM 40.6070 -73.8930 203° Southwest 261 300 1,800 800 Climbing FlightAware ADS-B
Fri 12:17:31 AM 40.5860 -73.8970 188° South 273 314 2,000 1,277 Climbing FlightAware ADS-B
Fri 12:18:01 AM 40.5460 -73.9040 188° South 291 335 2,800 1,808 Climbing FlightAware ADS-B
Fri 12:18:44 AM 40.4899 -73.8892 169° South 291 335 4,200 1,915 Climbing FlightAware ADS-B
Fri 12:18:48 AM 40.4860 -73.8842 136° Southeast 292 336 4,300 1,200 Climbing FlightAware ADS-B
Fri 12:18:54 AM 40.4808 -73.8762 131° Southeast 293 337 4,400 667 Climbing FlightAware ADS-B
Fri 12:18:57 AM 40.4783 -73.8717 126° Southeast 292 336 4,400  Level FlightAware ADS-B
Fri 12:19:01 AM 40.4757 -73.8657 120° Southeast 290 334 4,400 500 Level FlightAware ADS-B
Fri 12:19:09 AM 40.4718 -73.8526 111° Southeast 287 330 4,500 545 Climbing FlightAware ADS-B
Fri 12:19:12 AM 40.4710 -73.8474 101° East 287 330 4,500 857 Level FlightAware ADS-B
Fri 12:19:16 AM 40.4704 -73.8405 97° East 288 331 4,600 857 Climbing FlightAware ADS-B
Fri 12:19:19 AM 40.4703 -73.8352 91° East 288 331 4,600 1,500 Level FlightAware ADS-B
Fri 12:19:24 AM 40.4708 -73.8265 86° East 288 331 4,800 2,400 Climbing FlightAware ADS-B
Fri 12:19:29 AM 40.4721 -73.8179 79° East 287 330 5,000 2,667 Climbing FlightAware ADS-B
Fri 12:19:33 AM 40.4738 -73.8112 72° East 285 328 5,200 3,000 Climbing FlightAware ADS-B
Fri 12:19:37 AM 40.4763 -73.8050 62° Northeast 285 328 5,400 3,429 Climbing FlightAware ADS-B
Fri 12:19:40 AM 40.4783 -73.8005 60° Northeast 284 327 5,600 2,250 Climbing FlightAware ADS-B
Fri 12:19:45 AM 40.4813 -73.7947 56° Northeast 283 326 5,700 1,800 Climbing FlightAware ADS-B
Fri 12:19:50 AM 40.4864 -73.7869 49° Northeast 284 327 5,900 2,100 Climbing FlightAware ADS-B
Fri 12:20:05 AM 40.5004 -73.7680 46° Northeast 290 334 6,400 1,935 Climbing FlightAware ADS-B
Fri 12:20:21 AM 40.5147 -73.7488 46° Northeast 294 338 6,900 2,323 Climbing FlightAware ADS-B
Fri 12:20:36 AM 40.5296 -73.7282 46° Northeast 294 338 7,600 2,222 Climbing FlightAware ADS-B
Fri 12:20:48 AM 40.5414 -73.7132 44° Northeast 301 346 7,900 1,714 Climbing FlightAware ADS-B
Fri 12:20:57 AM 40.5515 -73.7030 37° Northeast 302 348 8,200 2,118 Climbing FlightAware ADS-B
Fri 12:21:05 AM 40.5607 -73.6949 34° Northeast 302 348 8,500 2,333 Climbing FlightAware ADS-B
Fri 12:21:15 AM 40.5729 -73.6861 29° Northeast 301 346 8,900 2,160 Climbing FlightAware ADS-B
Fri 12:21:30 AM 40.5920 -73.6735 27° Northeast 305 351 9,400 1,935 Climbing FlightAware ADS-B
Fri 12:21:46 AM 40.6118 -73.6601 27° Northeast 306 352 9,900 1,660 Climbing FlightAware ADS-B
Fri 12:22:17 AM 40.6516 -73.6331 27° Northeast 322 371 10,700 1,180 Climbing FlightAware ADS-B
Fri 12:22:47 AM 40.6933 -73.6045 27° Northeast 350 403 11,100 900 Climbing FlightAware ADS-B
Fri 12:23:17 AM 40.7395 -73.5740 27° Northeast 375 432 11,600 968 Climbing FlightAware ADS-B
Fri 12:23:49 AM 40.7900 -73.5400 27° Northeast 400 460 12,100 1,385 Climbing FlightAware ADS-B
Fri 12:24:22 AM 40.8464 -73.5022 27° Northeast 400 460 13,100 1,909 Climbing FlightAware ADS-B
Fri 12:24:55 AM 40.9024 -73.4639 27° Northeast 422 486 14,200 2,000 Climbing FlightAware ADS-B
Fri 12:25:25 AM 40.9565 -73.4282 26° Northeast 426 490 15,200 1,869 Climbing FlightAware ADS-B
Fri 12:25:56 AM 41.0118 -73.3904 27° Northeast 439 505 16,100 1,808 Climbing FlightAware ADS-B
Fri 12:26:38 AM 41.0885 -73.3379 27° Northeast 453 521 17,400 1,725 Climbing FlightAware ADS-B
Fri 12:27:16 AM 41.1600 -73.2900 27° Northeast 463 533 18,400 1,592 Climbing FlightAware ADS-B
Fri 12:27:27 AM 41.1813 -73.2746 29° Northeast 462 532 18,700 1,525 Climbing FlightAware ADS-B
Fri 12:28:15 AM 41.2757 -73.2107 27° Northeast 479 551 19,900 1,595 Climbing FlightAware ADS-B
Fri 12:28:46 AM 41.3364 -73.1684 28° Northeast 484 557 20,800 1,585 Climbing FlightAware ADS-B
Fri 12:29:08 AM 41.3764 -73.1294 36° Northeast 486 559 21,300 1,375 Climbing FlightAware ADS-B
Fri 12:29:34 AM 41.4128 -73.0710 50° Northeast 490 564 21,900 1,286 Climbing FlightAware ADS-B
Fri 12:30:04 AM 41.4480 -72.9930 59° Northeast 497 572 22,500 1,360 Climbing FlightAware ADS-B
Fri 12:30:49 AM 41.5010 -72.8690 60° Northeast 508 585 23,600 1,308 Climbing FlightAware ADS-B
Fri 12:31:22 AM 41.5390 -72.7820 60° Northeast 514 592 24,200 1,200 Climbing FlightAware ADS-B
Fri 12:32:04 AM 41.5930 -72.6670 58° Northeast 524 603 25,100 840 Climbing FlightAware ADS-B
Fri 12:33:02 AM 41.6760 -72.5340 50° Northeast 528 608 25,600 319 Climbing FlightAware ADS-B
Fri 12:33:38 AM 41.7250 -72.4580 49° Northeast 528 608 25,600  Level FlightAware ADS-B
Fri 12:34:14 AM 41.7740 -72.3830 49° Northeast 528 608 25,600  Level FlightAware ADS-B
Fri 12:35:02 AM 41.8400 -72.2820 49° Northeast 528 608 25,600 2,188 Level FlightAware ADS-B
Fri 12:35:39 AM 41.9790 -72.1630 32° Northeast 559 643 28,700 3,077 Climbing FlightAware ADS-B
Fri 12:36:20 AM 42.0610 -72.0620 42° Northeast 560 644 29,600 1,185 Climbing FlightAware ADS-B
Fri 12:37:00 AM 42.1360 -71.9660 43° Northeast 562 647 30,300 955 Climbing FlightAware ADS-B
Fri 12:37:48 AM 42.2270 -71.8460 44° Northeast 563 648 31,000 500 Climbing FlightAware ADS-B
Fri 12:38:24 AM 42.2960 -71.7560 44° Northeast 563 648 31,000  Level FlightAware ADS-B
Fri 12:39:06 AM 42.3740 -71.6530 44° Northeast 561 646 31,000  Level FlightAware ADS-B
Fri 12:39:46 AM 42.4490 -71.5550 44° Northeast 559 643 31,000  Level FlightAware ADS-B
Fri 12:40:22 AM 42.5140 -71.4690 44° Northeast 559 643 31,000  Level FlightAware ADS-B
Fri 12:41:02 AM 42.5890 -71.3690 44° Northeast 560 644 31,000  Level FlightAware ADS-B
Fri 12:41:47 AM 42.6710 -71.2610 44° Northeast 559 643 31,000  Level FlightAware ADS-B
Fri 12:42:26 AM 42.7440 -71.1620 45° Northeast 559 643 31,000  Level FlightAware ADS-B
Fri 12:43:02 AM 42.8100 -71.0730 45° Northeast 559 643 31,000  Level FlightAware ADS-B
Fri 12:43:42 AM 42.8850 -70.9740 44° Northeast 560 644 31,000  Level FlightAware ADS-B
Fri 12:44:24 AM 42.9610 -70.8690 45° Northeast 560 644 31,000  Level FlightAware ADS-B
Fri 12:45:09 AM 43.0430 -70.7590 44° Northeast 562 647 31,000  Level FlightAware ADS-B
Fri 12:45:52 AM 43.1230 -70.6490 45° Northeast 561 646 31,000  Level FlightAware ADS-B
Fri 12:46:32 AM 43.1980 -70.5490 44° Northeast 561 646 31,000  Level FlightAware ADS-B
Fri 12:47:16 AM 43.2770 -70.4410 45° Northeast 562 647 31,000  Level FlightAware ADS-B
Fri 12:47:36 AM 43.3140 -70.3870 47° Northeast 562 647 31,000  Level FlightAware ADS-B
Fri 12:48:17 AM 43.3870 -70.2880 45° Northeast 564 649 31,000  Level FlightAware ADS-B
Fri 12:49:00 AM 43.4690 -70.1740 45° Northeast 564 649 31,000  Level FlightAware ADS-B
Fri 12:49:42 AM 43.5460 -70.0670 45° Northeast 564 649 31,000  Level FlightAware ADS-B
Fri 12:50:22 AM 43.6180 -69.9670 45° Northeast 563 648 31,000  Level FlightAware ADS-B
Fri 12:50:38 AM 43.6480 -69.9260 45° Northeast 563 648 31,000  Level FlightAware ADS-B
Fri 12:50:50 AM 43.6690 -69.8950 47° Northeast 564 649 31,000  Level FlightAware ADS-B
Fri 12:51:48 AM 43.7710 -69.7550 45° Northeast 563 648 31,000  Level FlightAware ADS-B
Fri 12:52:22 AM 43.8380 -69.6590 46° Northeast 564 649 31,000  Level FlightAware ADS-B
Fri 12:53:14 AM 43.9210 -69.5410 46° Northeast 558 642 31,000  Level FlightAware ADS-B
Fri 12:54:00 AM 44.0150 -69.4080 45° Northeast 559 643 31,000  Level FlightAware ADS-B
Fri 12:54:35 AM 44.0780 -69.3170 46° Northeast 558 642 31,000  Level FlightAware ADS-B
Fri 12:55:16 AM 44.1530 -69.2100 46° Northeast 559 643 31,000  Level FlightAware ADS-B
Fri 12:56:10 AM 44.2390 -69.0840 46° Northeast 559 643 31,000  Level FlightAware ADS-B
Fri 12:56:54 AM 44.3320 -68.9500 46° Northeast 565 650 31,000  Level FlightAware ADS-B
Fri 12:57:39 AM 44.4160 -68.8300 46° Northeast 564 649 31,000  Level FlightAware ADS-B
Fri 12:58:18 AM 44.4840 -68.7300 46° Northeast 564 649 31,000  Level FlightAware ADS-B
Fri 12:58:59 AM 44.5590 -68.6190 47° Northeast 564 649 31,000  Level FlightAware ADS-B
Fri 12:59:36 AM 44.6250 -68.5230 46° Northeast 563 648 31,000  Level FlightAware ADS-B
Fri 01:00:20 AM 44.7040 -68.4070 46° Northeast 563 648 31,000  Level FlightAware ADS-B
Fri 01:00:59 AM 44.7740 -68.3030 47° Northeast 563 648 31,000  Level FlightAware ADS-B
Fri 01:01:36 AM 44.8400 -68.2050 46° Northeast 563 648 31,000  Level FlightAware ADS-B
Fri 01:02:16 AM 44.9120 -68.0950 47° Northeast 562 647 31,000  Level FlightAware ADS-B
Fri 01:03:01 AM 44.9930 -67.9750 46° Northeast 563 648 31,000  Level FlightAware ADS-B
Fri 01:03:40 AM 45.0620 -67.8710 47° Northeast 563 648 31,000  Level FlightAware ADS-B
Fri 01:04:17 AM 45.1280 -67.7710 47° Northeast 563 648 31,000  Level FlightAware ADS-B
Fri 01:05:01 AM 45.2040 -67.6580 46° Northeast 563 648 31,000  Level FlightAware ADS-B
Fri 01:05:41 AM 45.2750 -67.5470 48° Northeast 563 648 31,000  Level FlightAware ADS-B
Fri 01:06:26 AM 45.3550 -67.4250 47° Northeast 564 649 31,000  Level FlightAware ADS-B
Fri 01:07:12 AM 45.4370 -67.2990 47° Northeast 564 649 31,000  Level FlightAware ADS-B
Fri 01:07:51 AM 45.5050 -67.1930 48° Northeast 558 642 31,000  Level FlightAware ADS-B
Fri 01:08:36 AM 45.5840 -67.0730 47° Northeast 558 642 31,000  Level FlightAware ADS-B
Fri 01:09:16 AM 45.6550 -66.9600 48° Northeast 558 642 31,000  Level FlightAware ADS-B
Fri 01:09:56 AM 45.7260 -66.8510 47° Northeast 558 642 31,000  Level FlightAware ADS-B
Fri 01:10:41 AM 45.8060 -66.7260 47° Northeast 558 642 31,000  Level FlightAware ADS-B
Fri 01:11:21 AM 45.8750 -66.6160 48° Northeast 558 642 31,000  Level FlightAware ADS-B
Fri 01:12:02 AM 45.9480 -66.5020 47° Northeast 560 644 31,000  Level FlightAware ADS-B
Fri 01:12:41 AM 46.0160 -66.3940 48° Northeast 559 643 31,000  Level FlightAware ADS-B
Fri 01:13:26 AM 46.0940 -66.2710 48° Northeast 559 643 31,000  Level FlightAware ADS-B
Fri 01:13:56 AM 46.1470 -66.1840 49° Northeast 561 646 31,000  Level FlightAware ADS-B
Fri 01:14:48 AM 46.2240 -66.0610 48° Northeast 561 646 31,000  Level FlightAware ADS-B
Fri 01:15:24 AM 46.2770 -65.9750 48° Northeast 561 646 31,000  Level FlightAware ADS-B
Fri 01:16:00 AM 46.3300 -65.8900 48° Northeast 561 646 31,000  Level FlightAware ADS-B
Fri 01:16:46 AM 46.3980 -65.7810 48° Northeast 561 646 31,000  Level FlightAware ADS-B
Fri 01:17:22 AM 46.4510 -65.6950 48° Northeast 561 646 31,000  Level FlightAware ADS-B
Fri 01:17:58 AM 46.5040 -65.6090 48° Northeast 561 646 31,000  Level FlightAware ADS-B
Fri 01:18:46 AM 46.5750 -65.4950 48° Northeast 561 646 31,000  Level FlightAware ADS-B
Fri 01:19:22 AM 46.6280 -65.4090 48° Northeast 561 646 31,000  Level FlightAware ADS-B
Fri 01:20:10 AM 46.6990 -65.2940 48° Northeast 561 646 31,000  Level FlightAware ADS-B
Fri 01:20:47 AM 46.7530 -65.2060 48° Northeast 561 646 31,000  Level FlightAware ADS-B
Fri 01:21:35 AM 46.8240 -65.0910 48° Northeast 561 646 31,000  Level FlightAware ADS-B
Fri 01:22:11 AM 46.8770 -65.0040 48° Northeast 561 646 31,000  Level FlightAware ADS-B
Fri 01:22:47 AM 46.9300 -64.9180 48° Northeast 561 646 31,000  Level FlightAware ADS-B
Fri 01:23:23 AM 46.9840 -64.8320 47° Northeast 561 646 31,000  Level FlightAware ADS-B
Fri 01:24:35 AM 47.2333 -64.3500 47° Northeast 570 656 31,000  Level Moncton Center
Fri 01:25:35 AM 47.3500 -64.1500 49° Northeast 570 656 31,000  Level Moncton Center
Fri 01:26:35 AM 47.4500 -63.9833 48° Northeast 570 656 31,000  Level Moncton Center
Fri 01:27:35 AM 47.5500 -63.8000 51° Northeast 570 656 31,000  Level Moncton Center
Fri 01:28:35 AM 47.6500 -63.6333 48° Northeast 570 656 31,000  Level Moncton Center
Fri 01:29:35 AM 47.7667 -63.4333 49° Northeast 570 656 31,000  Level Moncton Center
Fri 01:30:35 AM 47.8667 -63.2500 51° Northeast 570 656 31,000  Level Moncton Center
Fri 01:31:35 AM 47.9667 -63.0667 51° Northeast 570 656 31,000  Level Moncton Center
Fri 01:32:35 AM 48.0667 -62.9000 48° Northeast 570 656 31,000  Level Moncton Center
Fri 01:33:35 AM 48.1500 -62.7167 56° Northeast 570 656 31,000  Level Moncton Center
Fri 01:34:35 AM 48.2667 -62.5167 49° Northeast 570 656 31,000  Level Moncton Center
Fri 01:35:35 AM 48.3667 -62.3333 51° Northeast 570 656 31,000  Level Moncton Center
Fri 01:36:35 AM 48.4667 -62.1500 51° Northeast 580 667 31,000  Level Moncton Center
Fri 01:37:35 AM 48.5667 -61.9667 50° Northeast 580 667 31,000  Level Moncton Center
Fri 01:38:35 AM 48.6667 -61.7667 53° Northeast 570 656 31,000  Level Moncton Center
Fri 01:39:35 AM 48.7667 -61.5833 50° Northeast 570 656 31,000  Level Moncton Center
Fri 01:40:35 AM 48.8667 -61.3667 55° Northeast 570 656 31,000  Level Moncton Center
Fri 01:41:35 AM 48.9667 -61.1833 50° Northeast 570 656 31,000  Level Moncton Center
Fri 01:42:35 AM 49.0500 -61.0000 55° Northeast 570 656 31,000  Level Moncton Center
Fri 01:43:35 AM 49.1667 -60.8167 46° Northeast 570 656 31,000  Level Moncton Center
Fri 01:44:35 AM 49.2667 -60.6167 52° Northeast 570 656 31,000  Level Moncton Center
Fri 01:45:35 AM 49.3500 -60.4167 57° Northeast 570 656 31,000  Level Moncton Center
Fri 01:46:35 AM 49.4500 -60.2167 52° Northeast 580 667 31,000  Level Moncton Center
Fri 01:47:35 AM 49.5667 -60.0333 46° Northeast 570 656 31,000  Level Moncton Center
Fri 01:48:35 AM 49.6500 -59.8500 55° Northeast 580 667 31,000  Level Moncton Center
Fri 01:49:35 AM 49.7500 -59.6333 54° Northeast 570 656 31,000  Level Moncton Center
Fri 01:50:35 AM 49.8333 -59.4333 57° Northeast 570 656 31,000  Level Moncton Center
Fri 01:56:02 AM 50.3480 -58.3640 57° Northeast 575 662 31,000  Level FlightAware ADS-B
Fri 01:57:00 AM 50.4250 -58.1750 57° Northeast 575 662 31,000  Level FlightAware ADS-B
Fri 01:57:36 AM 50.4700 -58.0680 57° Northeast 575 662 31,000  Level FlightAware ADS-B
Fri 01:58:16 AM 50.5310 -57.9140 58° Northeast 575 662 31,000  Level FlightAware ADS-B
Fri 01:58:52 AM 50.5760 -57.8070 56° Northeast 575 662 31,000  Level FlightAware ADS-B
Fri 01:59:41 AM 50.6360 -57.6600 57° Northeast 575 662 31,000  Level FlightAware ADS-B
Fri 02:00:29 AM 50.6950 -57.5170 57° Northeast 575 662 31,000  Level FlightAware ADS-B
Fri 02:01:15 AM 50.7520 -57.3790 57° Northeast 575 662 31,000  Level FlightAware ADS-B
Fri 02:01:51 AM 50.7960 -57.2710 57° Northeast 575 662 31,000  Level FlightAware ADS-B
Fri 02:02:32 AM 50.8460 -57.1480 57° Northeast 575 662 31,000  Level FlightAware ADS-B
Fri 02:03:18 AM 50.9030 -57.0100 57° Northeast 575 662 31,000  Level FlightAware ADS-B
Fri 02:03:54 AM 50.9470 -56.9010 57° Northeast 575 662 31,000  Level FlightAware ADS-B
Fri 02:04:42 AM 51.0070 -56.7570 56° Northeast 575 662 31,000  Level FlightAware ADS-B
Fri 02:05:30 AM 51.0660 -56.6120 57° Northeast 575 662 31,000  Level FlightAware ADS-B
Fri 02:06:06 AM 51.1100 -56.5030 57° Northeast 575 662 31,000  Level FlightAware ADS-B
Fri 02:06:54 AM 51.1690 -56.3580 57° Northeast 575 662 31,000  Level FlightAware ADS-B
Fri 02:07:30 AM 51.2130 -56.2490 57° Northeast 575 662 31,000  Level FlightAware ADS-B
Fri 02:08:44 AM 51.4000 -55.6000 57° Northeast 570 656 31,000  Level Gander Center
Fri 02:09:44 AM 51.5000 -55.3667 55° Northeast 570 656 31,000  Level Gander Center
Fri 02:10:44 AM 51.5667 -55.1500 64° Northeast 580 667 31,000  Level Gander Center
Fri 02:11:44 AM 51.6500 -54.9167 60° Northeast 580 667 31,000  Level Gander Center
Fri 02:12:44 AM 51.7333 -54.6833 60° Northeast 570 656 31,000 150 Level Gander Center
Fri 02:13:44 AM 51.8167 -54.4833 56° Northeast 580 667 31,300 800 Climbing Gander Center
Fri 02:14:44 AM 51.8833 -54.2500 65° Northeast 580 667 32,600 1,250 Climbing Gander Center
Fri 02:15:44 AM 51.9667 -54.0000 62° Northeast 570 656 33,800 700 Climbing Gander Center
Fri 02:16:44 AM 52.0333 -53.8000 61° Northeast 580 667 34,000 100 Climbing Gander Center
Fri 02:17:44 AM 52.1333 -53.5667 55° Northeast 570 656 34,000  Level Gander Center
Fri 02:18:44 AM 52.2000 -53.3333 65° Northeast 570 656 34,000  Level Gander Center
Fri 02:19:44 AM 52.2667 -53.1000 65° Northeast 580 667 34,000  Level Gander Center
Fri 02:20:50 AM 52.3333 -52.8500 66° East 570 656 34,000  Level Gander Center
Fri 02:21:50 AM 52.4000 -52.6167 65° Northeast 570 656 34,000  Level Gander Center
Fri 02:22:44 AM 52.4333 -52.3833 77° East 570 656 34,000  Level Gander Center
Fri 02:23:44 AM 52.4833 -52.1500 71° East 570 656 34,000  Level Gander Center
Fri 02:24:44 AM 52.5500 -51.9167 65° Northeast 570 656 34,000  Level Gander Center
Fri 02:25:44 AM 52.6333 -51.5833 67° East 580 667 34,000  Level Gander Center
Fri 02:27:44 AM 52.7167 -51.1500 72° East 590 679 34,000  Level Gander Center
Fri 02:28:44 AM 52.7833 -50.9167 65° Northeast 580 667 34,000  Level Gander Center
Fri 02:29:44 AM 52.8333 -50.6500 73° East 580 667 34,000  Level Gander Center
Fri 02:30:44 AM 52.8833 -50.4167 70° East 570 656 34,000  Level Gander Center
Fri 02:31:44 AM 52.9333 -50.1500 73° East 580 667 34,000  Level Gander Center
Fri 02:32:44 AM 52.9833 -49.9167 70° East 580 667 34,000  Level Gander Center
Fri 02:34:00 AM 53.0278 -49.6184 76° East  Level FlightAware Approximate
Fri 02:41:00 AM 53.2599 -47.9592 76° East  Level FlightAware Approximate
Fri 02:42:00 AM 53.2911 -47.7207 78° East  Level FlightAware Approximate
Fri 02:43:00 AM 53.3219 -47.4819 78° East  Level FlightAware Approximate
Fri 02:44:00 AM 53.3522 -47.2428 78° East  Level FlightAware Approximate
Fri 02:45:00 AM 53.3821 -47.0033 78° East  Level FlightAware Approximate
Fri 02:46:00 AM 53.4547 -46.4666 79° East 556 640 34,000  Level FlightAware Transoceanic
Fri 02:47:00 AM 53.4831 -46.2114 79° East 556 640 34,000  Level FlightAware Transoceanic
Fri 02:48:00 AM 53.5110 -45.9559 80° East 556 640 34,000  Level FlightAware Transoceanic
Fri 02:49:00 AM 53.5384 -45.7001 80° East 556 640 34,000  Level FlightAware Transoceanic
Fri 02:50:00 AM 53.5652 -45.4440 80° East 556 640 34,000  Level FlightAware Transoceanic
Fri 02:51:00 AM 53.5914 -45.1875 80° East 556 640 34,000  Level FlightAware Transoceanic
Fri 02:52:00 AM 53.6172 -44.9307 81° East 556 640 34,000  Level FlightAware Transoceanic
Fri 02:53:00 AM 53.6423 -44.6736 81° East 556 640 34,000  Level FlightAware Transoceanic
Fri 02:54:00 AM 53.6670 -44.4162 81° East 556 640 34,000  Level FlightAware Transoceanic
Fri 02:55:00 AM 53.6910 -44.1585 81° East 556 640 34,000  Level FlightAware Transoceanic
Fri 02:56:00 AM 53.7145 -43.9005 81° East 556 640 34,000  Level FlightAware Transoceanic
Fri 02:57:00 AM 53.7375 -43.6422 82° East 556 640 34,000  Level FlightAware Transoceanic
Fri 02:58:00 AM 53.7599 -43.3837 82° East 556 640 34,000  Level FlightAware Transoceanic
Fri 02:59:00 AM 53.7817 -43.1248 82° East 556 640 34,000  Level FlightAware Transoceanic
Fri 03:00:00 AM 53.8030 -42.8657 82° East 556 640 34,000  Level FlightAware Transoceanic
Fri 03:01:00 AM 53.8237 -42.6064 82° East 556 640 34,000  Level FlightAware Transoceanic
Fri 03:02:00 AM 53.8439 -42.3468 83° East 556 640 34,000  Level FlightAware Transoceanic
Fri 03:03:00 AM 53.8635 -42.0869 83° East 556 640 34,000  Level FlightAware Transoceanic
Fri 03:04:00 AM 53.8825 -41.8268 83° East 556 640 34,000  Level FlightAware Transoceanic
Fri 03:05:00 AM 53.9010 -41.5665 83° East 556 640 34,000  Level FlightAware Transoceanic
Fri 03:06:00 AM 53.9189 -41.3059 83° East 556 640 34,000  Level FlightAware Transoceanic
Fri 03:07:00 AM 53.9363 -41.0452 84° East 556 640 34,000  Level FlightAware Transoceanic
Fri 03:08:00 AM 53.9530 -40.7842 84° East 556 640 34,000  Level FlightAware Transoceanic
Fri 03:09:00 AM 53.9693 -40.5230 84° East 556 640 34,000  Level FlightAware Transoceanic
Fri 03:10:00 AM 53.9849 -40.2616 84° East 556 640 34,000  Level FlightAware Transoceanic
Fri 03:11:00 AM 53.9992 -40.0145 84° East  Level FlightAware Approximate
Fri 03:12:00 AM 54.0130 -39.7672 84° East  Level FlightAware Approximate
Fri 03:13:00 AM 54.0089 -39.7812 86° East  Level FlightAware Approximate
Fri 03:14:00 AM 54.0185 -39.5333 86° East  Level FlightAware Approximate
Fri 03:15:00 AM 54.0276 -39.2853 86° East  Level FlightAware Approximate
Fri 03:16:00 AM 54.0362 -39.0372 87° East  Level FlightAware Approximate
Fri 03:17:00 AM 54.0442 -38.7889 87° East  Level FlightAware Approximate
Fri 03:18:00 AM 54.0518 -38.5406 87° East  Level FlightAware Approximate
Fri 03:19:00 AM 54.0588 -38.2922 87° East  Level FlightAware Approximate
Fri 03:19:12 AM 54.0000 -40.0000 86° East 556 640 34,000  Level ETMS Enhanced Traffic Management System
Fri 03:20:00 AM 54.0654 -38.0438 87° East  Level FlightAware Approximate
Fri 03:21:00 AM 54.0714 -37.7952 88° East  Level FlightAware Approximate
Fri 03:22:00 AM 54.0769 -37.5466 88° East  Level FlightAware Approximate
Fri 03:23:00 AM 54.0819 -37.2979 88° East  Level FlightAware Approximate
Fri 03:24:00 AM 54.0864 -37.0491 88° East  Level FlightAware Approximate
Fri 03:25:00 AM 54.0992 -36.0543 89° East 556 640 34,000  Level FlightAware Transoceanic
Fri 03:26:00 AM 54.1012 -35.7908 89° East 556 640 34,000  Level FlightAware Transoceanic
Fri 03:27:00 AM 54.1027 -35.5272 90° East 556 640 34,000  Level FlightAware Transoceanic
Fri 03:28:00 AM 54.1035 -35.2636 90° East 556 640 34,000  Level FlightAware Transoceanic
Fri 03:29:00 AM 54.1038 -35.0000 90° East 556 640 34,000  Level FlightAware Transoceanic
Fri 03:30:00 AM 54.1035 -34.7364 90° East 556 640 34,000  Level FlightAware Transoceanic
Fri 03:31:00 AM 54.1027 -34.4728 90° East 556 640 34,000  Level FlightAware Transoceanic
Fri 03:32:00 AM 54.1012 -34.2092 91° East 556 640 34,000  Level FlightAware Transoceanic
Fri 03:33:00 AM 54.0992 -33.9457 91° East 556 640 34,000  Level FlightAware Transoceanic
Fri 03:34:00 AM 54.0966 -33.6822 91° East 556 640 34,000  Level FlightAware Transoceanic
Fri 03:35:00 AM 54.0934 -33.4187 91° East 556 640 34,000  Level FlightAware Transoceanic
Fri 03:36:00 AM 54.0897 -33.1552 91° East 556 640 34,000  Level FlightAware Transoceanic
Fri 03:37:00 AM 54.0854 -32.8918 92° East 556 640 34,000  Level FlightAware Transoceanic
Fri 03:38:00 AM 54.0805 -32.6285 92° East 556 640 34,000  Level FlightAware Transoceanic
Fri 03:39:00 AM 54.0750 -32.3652 92° East 556 640 34,000  Level FlightAware Transoceanic
Fri 03:40:00 AM 54.0690 -32.1021 92° East 556 640 34,000  Level FlightAware Transoceanic
Fri 03:41:00 AM 54.0624 -31.8389 93° East 556 640 34,000  Level FlightAware Transoceanic
Fri 03:42:00 AM 54.0552 -31.5759 93° East 556 640 34,000  Level FlightAware Transoceanic
Fri 03:43:00 AM 54.0474 -31.3130 93° East 556 640 34,000  Level FlightAware Transoceanic
Fri 03:44:00 AM 54.0391 -31.0502 93° East 556 640 34,000  Level FlightAware Transoceanic
Fri 03:45:00 AM 54.0302 -30.7874 93° East 556 640 34,000  Level FlightAware Transoceanic
Fri 03:46:00 AM 54.0207 -30.5248 94° East 556 640 34,000  Level FlightAware Transoceanic
Fri 03:47:00 AM 54.0106 -30.2624 94° East 556 640 34,000 -13 Level FlightAware Transoceanic
Fri 03:48:00 AM 54.0006 -30.0145 94° East  Level FlightAware Approximate
Fri 03:49:00 AM 53.9901 -29.7668 94° East  Level FlightAware Approximate
Fri 03:50:00 AM 53.9875 -29.7819 95° East  Level FlightAware Approximate
Fri 03:51:00 AM 53.9728 -29.5345 96° East  Level FlightAware Approximate
Fri 03:52:00 AM 53.9575 -29.2872 96° East  Level FlightAware Approximate
Fri 03:53:00 AM 53.9419 -29.0410 96° East  Level FlightAware Approximate
Fri 03:54:00 AM 53.9257 -28.7950 96° East  Level FlightAware Approximate
Fri 03:55:00 AM 53.9090 -28.5492 96° East  Level FlightAware Approximate
Fri 03:56:00 AM 53.8918 -28.3036 97° East  Level FlightAware Approximate
Fri 03:57:00 AM 53.8742 -28.0582 97° East  Level FlightAware Approximate
Fri 03:58:00 AM 53.8560 -27.8130 97° East  Level FlightAware Approximate
Fri 03:59:00 AM 53.8373 -27.5680 97° East  Level FlightAware Approximate
Fri 04:00:00 AM 53.8181 -27.3232 97° East  Level FlightAware Approximate
Fri 04:01:00 AM 53.7985 -27.0787 98° East  Level FlightAware Approximate
Fri 04:02:00 AM 53.7783 -26.8344 98° East  Level FlightAware Approximate
Fri 04:03:00 AM 53.7576 -26.5903 98° East  Level FlightAware Approximate
Fri 04:04:00 AM 53.7365 -26.3465 98° East  Level FlightAware Approximate
Fri 04:05:00 AM 53.7148 -26.1029 98° East  Level FlightAware Approximate
Fri 04:06:00 AM 53.6927 -25.8596 99° East  Level FlightAware Approximate
Fri 04:07:00 AM 53.6700 -25.6166 99° East  Level FlightAware Approximate
Fri 04:08:00 AM 53.6469 -25.3738 99° East  Level FlightAware Approximate
Fri 04:09:00 AM 53.6233 -25.1312 99° East  Level FlightAware Approximate
Fri 04:10:00 AM 53.5992 -24.8890 99° East  Level FlightAware Approximate
Fri 04:11:00 AM 53.5746 -24.6470 100° East  Level FlightAware Approximate
Fri 04:12:00 AM 53.5495 -24.4053 100° East  Level FlightAware Approximate
Fri 04:13:00 AM 53.5239 -24.1639 100° East  Level FlightAware Approximate
Fri 04:14:00 AM 53.4978 -23.9228 100° East  Level FlightAware Approximate
Fri 04:15:00 AM 53.4713 -23.6820 100° East  Level FlightAware Approximate
Fri 04:16:00 AM 53.4443 -23.4415 101° East  Level FlightAware Approximate
Fri 04:17:00 AM 53.4168 -23.2013 101° East  Level FlightAware Approximate
Fri 04:18:00 AM 53.3888 -22.9614 101° East  Level FlightAware Approximate
Fri 04:19:00 AM 53.3603 -22.7218 101° East  Level FlightAware Approximate
Fri 04:20:00 AM 53.3313 -22.4826 101° East  Level FlightAware Approximate
Fri 04:21:00 AM 53.3019 -22.2437 102° East  Level FlightAware Approximate
Fri 04:22:00 AM 53.2720 -22.0051 102° East  Level FlightAware Approximate
Fri 04:23:00 AM 53.2416 -21.7668 102° East  Level FlightAware Approximate
Fri 04:24:00 AM 53.2108 -21.5289 102° East  Level FlightAware Approximate
Fri 04:25:00 AM 53.1794 -21.2914 102° East  Level FlightAware Approximate
Fri 04:26:00 AM 53.1476 -21.0542 103° East  Level FlightAware Approximate
Fri 04:27:00 AM 53.1154 -20.8173 103° East  Level FlightAware Approximate
Fri 04:28:00 AM 53.0826 -20.5808 103° East  Level FlightAware Approximate
Fri 04:29:00 AM 53.0494 -20.3447 103° East  Level FlightAware Approximate
Fri 04:30:00 AM 53.0157 -20.1089 103° East  Level FlightAware Approximate
Fri 04:31:00 AM 52.9996 -19.8698 90° East  Level FlightAware Approximate
Fri 04:32:00 AM 52.9986 -19.6277 90° East  Level FlightAware Approximate
Fri 04:33:00 AM 52.9970 -19.3847 91° East  Level FlightAware Approximate
Fri 04:34:00 AM 52.9949 -19.1426 91° East  Level FlightAware Approximate
Fri 04:35:00 AM 52.9924 -18.9005 91° East  Level FlightAware Approximate
Fri 04:36:00 AM 52.9893 -18.6585 91° East  Level FlightAware Approximate
Fri 04:37:00 AM 52.9858 -18.4165 91° East  Level FlightAware Approximate
Fri 04:38:00 AM 52.9818 -18.1745 91° East  Level FlightAware Approximate
Fri 04:39:00 AM 52.9773 -17.9326 92° East  Level FlightAware Approximate
Fri 04:40:00 AM 52.9723 -17.6907 92° East  Level FlightAware Approximate
Fri 04:41:00 AM 52.9668 -17.4489 92° East  Level FlightAware Approximate
Fri 04:42:00 AM 52.9608 -17.2071 92° East  Level FlightAware Approximate
Fri 04:43:00 AM 52.9543 -16.9655 92° East  Level FlightAware Approximate
Fri 04:44:00 AM 52.9473 -16.7239 93° East  Level FlightAware Approximate
Fri 04:45:00 AM 52.9399 -16.4823 93° East  Level FlightAware Approximate
Fri 04:46:00 AM 52.9319 -16.2409 93° East  Level FlightAware Approximate
Fri 04:47:00 AM 52.9235 -15.9996 93° East  Level FlightAware Approximate
Fri 04:48:00 AM 52.9146 -15.7583 93° East  Level FlightAware Approximate
Fri 04:49:00 AM 52.9052 -15.5172 94° East  Level FlightAware Approximate
Fri 04:50:00 AM 52.8953 -15.2762 94° East  Level FlightAware Approximate
Fri 04:51:00 AM 52.8849 -15.0352 94° East  Level FlightAware Approximate
Fri 04:52:00 AM 52.8740 -14.7944 94° East  Level FlightAware Approximate
Fri 04:53:00 AM 52.8627 -14.5538 94° East  Level FlightAware Approximate
Fri 04:54:00 AM 52.8509 -14.3132 95° East  Level FlightAware Approximate
Fri 04:55:00 AM 52.8386 -14.0724 95° East  Level FlightAware Approximate
Fri 04:56:00 AM 52.8257 -13.8317 95° East  Level FlightAware Approximate
Fri 04:57:00 AM 52.8128 -13.5911 95° East  Level FlightAware Approximate
Fri 04:58:00 AM 52.8000 -13.3505 95° East  Level FlightAware Approximate
Fri 04:59:00 AM 52.7868 -13.1101 95° East  Level FlightAware Approximate
Fri 05:00:00 AM 52.7730 -12.8698 95° East  Level FlightAware Approximate
Fri 05:01:00 AM 52.7588 -12.6297 95° East  Level FlightAware Approximate
Fri 05:02:00 AM 52.7441 -12.3897 96° East  Level FlightAware Approximate
Fri 05:02:43 AM 52.8780 -12.9480 96° East 498 573 33,000  Level FlightAware ADS-B
Fri 05:03:00 AM 52.7289 -12.1500 96° East  Level FlightAware Approximate
Fri 05:03:23 AM 52.8670 -12.8040 97° East 502 578 33,500  Level FlightAware ADS-B
Fri 05:04:03 AM 52.8470 -12.6430 102° East 499 574 34,400 1,059 Climbing FlightAware ADS-B
Fri 05:04:48 AM 52.8220 -12.4800 104° East 500 575 35,000 424 Climbing FlightAware ADS-B
Fri 05:05:28 AM 52.8010 -12.3270 103° East 498 573 35,000  Level FlightAware ADS-B
Fri 05:06:13 AM 52.7860 -12.1610 98° East 499 574 35,000  Level FlightAware ADS-B
Fri 05:06:53 AM 52.7730 -12.0070 98° East 499 574 35,000  Level FlightAware ADS-B
Fri 05:07:33 AM 52.7610 -11.8600 98° East 500 575 35,000  Level FlightAware ADS-B
Fri 05:08:18 AM 52.7470 -11.6860 98° East 501 577 35,000  Level FlightAware ADS-B
Fri 05:08:58 AM 52.7350 -11.5420 98° East 503 579 35,000  Level FlightAware ADS-B
Fri 05:09:39 AM 52.7220 -11.3930 98° East 505 581 35,000  Level FlightAware ADS-B
Fri 05:10:18 AM 52.7080 -11.2330 98° East 507 583 35,000  Level FlightAware ADS-B
Fri 05:11:05 AM 52.6930 -11.0600 98° East 508 585 35,000  Level FlightAware ADS-B
Fri 05:11:28 AM 52.6850 -10.9650 98° East 508 585 35,000  Level FlightAware ADS-B
Fri 05:12:13 AM 52.6690 -10.7890 98° East 506 582 35,000  Level FlightAware ADS-B
Fri 05:12:58 AM 52.6530 -10.6170 99° East 505 581 35,000  Level FlightAware ADS-B
Fri 05:13:48 AM 52.6350 -10.4270 99° East 503 579 35,000  Level FlightAware ADS-B
Fri 05:14:28 AM 52.6210 -10.2840 99° East 503 579 35,000  Level FlightAware ADS-B
Fri 05:15:23 AM 52.6010 -10.0680 99° East 505 581 35,000  Level FlightAware ADS-B
Fri 05:16:10 AM 52.5830 -9.8900 99° East 506 582 35,000  Level FlightAware ADS-B
Fri 05:16:55 AM 52.5660 -9.7230 99° East 506 582 35,000  Level FlightAware ADS-B
Fri 05:17:35 AM 52.5500 -9.5680 100° East 507 583 35,000  Level FlightAware ADS-B
Fri 05:18:16 AM 52.5350 -9.4120 99° East 507 583 35,000  Level FlightAware ADS-B
Fri 05:19:01 AM 52.5170 -9.2420 100° East 506 582 35,000  Level FlightAware ADS-B
Fri 05:19:42 AM 52.5000 -9.0870 100° East 506 582 35,000  Level FlightAware ADS-B
Fri 05:20:17 AM 52.4860 -8.9540 100° East 507 583 35,000  Level FlightAware ADS-B
Fri 05:21:02 AM 52.4680 -8.7840 100° East 507 583 35,000  Level FlightAware ADS-B
Fri 05:21:38 AM 52.4522 -8.6409 100° East 502 578 35,000  Level FlightAware UK
Fri 05:21:43 AM 52.4510 -8.6320 100° East 507 583 35,000  Level FlightAware ADS-B
Fri 05:22:08 AM 52.4400 -8.5340 100° East 507 583 35,000  Level FlightAware ADS-B
Fri 05:22:38 AM 52.4268 -8.4136 100° East 504 580 35,000  Level FlightAware UK
Fri 05:23:08 AM 52.4139 -8.2992 100° East 504 580 35,000  Level FlightAware UK
Fri 05:23:14 AM 52.4120 -8.2830 100° East 508 585 35,000  Level FlightAware ADS-B
Fri 05:23:55 AM 52.3940 -8.1320 101° East 509 586 35,000  Level FlightAware ADS-B
Fri 05:24:33 AM 52.3770 -7.9840 101° East 509 586 35,000  Level FlightAware ADS-B
Fri 05:25:08 AM 52.3614 -7.8449 101° East 502 578 35,000  Level FlightAware UK
Fri 05:25:09 AM 52.3610 -7.8480 101° East 511 588 35,000  Level FlightAware ADS-B
Fri 05:25:57 AM 52.3400 -7.6630 100° East 510 587 35,000  Level FlightAware ADS-B
Fri 05:26:35 AM 52.3230 -7.5260 100° East 510 587 35,000  Level FlightAware ADS-B
Fri 05:26:38 AM 52.3209 -7.5043 100° East 506 582 35,000  Level FlightAware UK
Fri 05:27:08 AM 52.3070 -7.3911 100° East 502 578 35,000  Level FlightAware UK
Fri 05:27:16 AM 52.3050 -7.3790 100° East 511 588 35,000  Level FlightAware ADS-B
Fri 05:28:02 AM 52.2830 -7.1980 101° East 509 586 35,000  Level FlightAware ADS-B
Fri 05:28:39 AM 52.2650 -7.0511 101° East 504 580 35,000  Level FlightAware UK
Fri 05:28:44 AM 52.2630 -7.0370 101° East 509 586 35,000  Level FlightAware ADS-B
Fri 05:29:18 AM 52.2460 -6.9050 102° East 509 586 35,000  Level FlightAware ADS-B
Fri 05:29:59 AM 52.2270 -6.7590 102° East 509 586 35,000  Level FlightAware ADS-B
Fri 05:30:39 AM 52.2077 -6.6008 102° East 500 575 35,000  Level FlightAware UK
Fri 05:30:43 AM 52.2060 -6.5900 102° East 510 587 35,000  Level FlightAware ADS-B
Fri 05:31:19 AM 52.1880 -6.4500 102° East 512 589 35,000  Level FlightAware ADS-B
Fri 05:31:59 AM 52.1680 -6.3000 102° East 512 589 35,000  Level FlightAware ADS-B
Fri 05:32:43 AM 52.1460 -6.1340 102° East 512 589 35,000  Level FlightAware ADS-B
Fri 05:33:23 AM 52.1280 -5.9820 101° East 515 593 35,000  Level FlightAware ADS-B
Fri 05:34:06 AM 52.1110 -5.8220 100° East 516 594 35,000  Level FlightAware ADS-B
Fri 05:34:46 AM 52.0940 -5.6700 100° East 515 593 35,000  Level FlightAware ADS-B
Fri 05:35:30 AM 52.0750 -5.5030 100° East 514 592 35,000  Level FlightAware ADS-B
Fri 05:36:09 AM 52.0573 -5.3503 100° East 498 573 35,000  Level FlightAware UK
Fri 05:36:11 AM 52.0560 -5.3440 100° East 516 594 35,000  Level FlightAware ADS-B
Fri 05:36:47 AM 52.0400 -5.2070 101° East 516 594 35,000  Level FlightAware ADS-B
Fri 05:37:31 AM 52.0200 -5.0440 101° East 515 593 35,000  Level FlightAware ADS-B
Fri 05:38:11 AM 52.0020 -4.8920 101° East 515 593 35,000  Level FlightAware ADS-B
Fri 05:38:47 AM 51.9850 -4.7520 101° East 515 593 35,000  Level FlightAware ADS-B
Fri 05:39:25 AM 51.9670 -4.6090 101° East 515 593 35,000  Level FlightAware ADS-B
Fri 05:39:55 AM 51.9530 -4.4950 101° East 514 592 35,000  Level FlightAware ADS-B
Fri 05:40:03 AM 51.9490 -4.4634 101° East 500 575 35,000  Level FlightAware UK
Fri 05:40:57 AM 51.9232 -4.2603 101° East 498 573 35,000  Level FlightAware UK
Fri 05:40:57 AM 51.9240 -4.2660 101° East 513 590 35,000  Level FlightAware ADS-B
Fri 05:41:39 AM 51.9030 -4.1026 101° East 496 571 35,000  Level FlightAware UK
Fri 05:41:43 AM 51.9020 -4.0970 101° East 513 590 35,000  Level FlightAware ADS-B
Fri 05:42:21 AM 51.8824 -3.9444 101° East 498 573 35,000  Level FlightAware UK
Fri 05:42:27 AM 51.8790 -3.9250 101° East 513 590 35,000  Level FlightAware ADS-B
Fri 05:42:57 AM 51.8646 -3.8096 101° East 496 571 35,000  Level FlightAware UK
Fri 05:43:12 AM 51.8570 -3.7560 101° East 512 589 35,000  Level FlightAware ADS-B
Fri 05:43:26 AM 51.8497 -3.7044 103° East 506 582 35,000  Level FlightAware ADS-B
Fri 05:44:03 AM 51.8241 -3.5718 107° East 503 579 35,000  Level FlightAware ADS-B
Fri 05:44:34 AM 51.8023 -3.4608 108° East 504 580 35,000  Level FlightAware ADS-B
Fri 05:45:08 AM 51.7790 -3.3389 107° East 504 580 35,000  Level FlightAware ADS-B
Fri 05:45:41 AM 51.7563 -3.2204 107° East 503 579 35,000  Level FlightAware ADS-B
Fri 05:46:12 AM 51.7346 -3.1093 107° East 504 580 35,000  Level FlightAware ADS-B
Fri 05:46:42 AM 51.7137 -3.0022 107° East 504 580 35,000  Level FlightAware ADS-B
Fri 05:47:12 AM 51.6930 -2.8950 107° East 505 581 35,000  Level FlightAware ADS-B
Fri 05:47:16 AM 51.6905 -2.8792 107° East 494 568 35,000  Level FlightAware UK
Fri 05:47:26 AM 51.6836 -2.8444 107° East 505 581 35,000  Level FlightAware ADS-B
Fri 05:47:56 AM 51.6622 -2.7371 108° East 504 580 35,000  Level FlightAware ADS-B
Fri 05:48:26 AM 51.6412 -2.6299 107° East 504 580 35,000  Level FlightAware ADS-B
Fri 05:48:57 AM 51.6199 -2.5192 107° East 504 580 35,000  Level FlightAware ADS-B
Fri 05:49:27 AM 51.5986 -2.4123 108° East 504 580 35,000  Level FlightAware ADS-B
Fri 05:49:57 AM 51.5765 -2.3022 108° East 503 579 35,000  Level FlightAware ADS-B
Fri 05:50:31 AM 51.5525 -2.1848 108° East 504 580 35,000  Level FlightAware ADS-B
Fri 05:51:04 AM 51.5285 -2.0677 108° East 504 580 35,000  Level FlightAware ADS-B
Fri 05:51:35 AM 51.5061 -1.9581 108° East 503 579 35,000  Level FlightAware ADS-B
Fri 05:52:06 AM 51.4832 -1.8482 108° East 504 580 35,000  Level FlightAware ADS-B
Fri 05:52:36 AM 51.4612 -1.7419 108° East 506 582 35,000  Level FlightAware ADS-B
Fri 05:52:45 AM 51.4563 -1.7088 103° East 519 597 35,000  Level FlightAware ADS-B
Fri 05:53:16 AM 51.4476 -1.5892 97° East 527 606 35,000  Level FlightAware ADS-B
Fri 05:53:47 AM 51.4392 -1.4691 96° East 527 606 35,000  Level FlightAware ADS-B
Fri 05:54:17 AM 51.4298 -1.3534 97° East 527 606 35,000  Level FlightAware ADS-B
Fri 05:54:49 AM 51.4191 -1.2299 98° East 526 605 35,000  Level FlightAware ADS-B
Fri 05:55:20 AM 51.4103 -1.1099 97° East 531 611 35,000  Level FlightAware ADS-B
Fri 05:55:50 AM 51.4030 -0.9926 96° East 531 611 35,000  Level FlightAware ADS-B
Fri 05:56:20 AM 51.3955 -0.8720 96° East 530 610 35,000  Level FlightAware ADS-B
Fri 05:56:51 AM 51.3875 -0.7553 96° East 529 609 35,000  Level FlightAware ADS-B
Fri 05:57:21 AM 51.3791 -0.6389 97° East 529 609 35,000  Level FlightAware ADS-B
Fri 05:57:53 AM 51.3701 -0.5150 97° East 528 608 35,000  Level FlightAware ADS-B
Fri 05:58:24 AM 51.3612 -0.3955 97° East 526 605 35,000  Level FlightAware ADS-B
Fri 05:58:55 AM 51.3523 -0.2762 97° East 525 604 35,000  Level FlightAware ADS-B
Fri 05:59:26 AM 51.3430 -0.1534 97° East 524 603 35,000  Level FlightAware ADS-B
Fri 05:59:57 AM 51.3339 -0.0385 97° East 522 601 35,000  Level FlightAware ADS-B
Fri 06:00:28 AM 51.3246 0.0802 97° East 522 601 35,000  Level FlightAware ADS-B
Fri 06:00:59 AM 51.3153 0.1985 97° East 522 601 35,000  Level FlightAware ADS-B
Fri 06:01:34 AM 51.3047 0.3322 97° East 522 601 35,000  Level FlightAware ADS-B
Fri 06:02:06 AM 51.2949 0.4545 97° East 523 602 35,000  Level FlightAware ADS-B
Fri 06:02:36 AM 51.2855 0.5692 97° East 523 602 35,000  Level FlightAware ADS-B
Fri 06:03:07 AM 51.2757 0.6879 97° East 525 604 35,000  Level FlightAware ADS-B
Fri 06:03:37 AM 51.2661 0.8029 98° East 525 604 35,000  Level FlightAware ADS-B
Fri 06:04:08 AM 51.2559 0.9216 98° East 525 604 35,000  Level FlightAware ADS-B
Fri 06:04:38 AM 51.2460 1.0364 98° East 525 604 35,000  Level FlightAware ADS-B
Fri 06:05:15 AM 51.2336 1.1778 98° East 525 604 35,000  Level FlightAware ADS-B
Fri 06:06:02 AM 51.2190 1.3380 98° East 523 602 35,000  Level FlightAware ADS-B
Fri 06:06:07 AM 51.2162 1.3768 98° East 498 573 35,000  Level FlightAware UK
Fri 06:06:43 AM 51.2040 1.5148 98° East 496 571 35,000  Level FlightAware UK
Fri 06:06:54 AM 51.2000 1.5550 98° East 523 602 35,000  Level FlightAware ADS-B
Fri 06:07:25 AM 51.1893 1.6746 98° East 498 573 35,000  Level FlightAware UK
Fri 06:07:30 AM 51.1880 1.6890 98° East 522 601 35,000  Level FlightAware ADS-B
Fri 06:08:15 AM 51.1710 1.8640 99° East 522 601 35,000  Level FlightAware ADS-B
Fri 06:08:49 AM 51.1434 1.9833 99° East 498 573 35,000  Level FlightAware UK
Fri 06:08:51 AM 51.1440 1.9820 99° East 501 577 35,000  Level FlightAware ADS-B
Fri 06:09:30 AM 51.1004 2.1161 117° Southeast 501 577 35,000  Level FlightAware ADS-B
Fri 06:10:05 AM 51.0648 2.2332 116° Southeast 505 581 35,000  Level FlightAware ADS-B
Fri 06:10:43 AM 51.0284 2.3634 116° Southeast 498 573 35,000  Level FlightAware UK
Fri 06:10:56 AM 51.0210 2.3890 116° Southeast 505 581 35,000  Level FlightAware ADS-B
Fri 06:11:46 AM 50.9750 2.5550 114° Southeast 503 579 35,000  Level FlightAware ADS-B
Fri 06:12:25 AM 50.9297 2.7073 114° Southeast 498 573 35,000  Level FlightAware UK
Fri 06:12:27 AM 50.9320 2.6980 114° Southeast 503 579 35,000  Level FlightAware ADS-B
Fri 06:13:09 AM 50.8840 2.8490 117° Southeast 503 579 35,000  Level FlightAware ADS-B
Fri 06:13:50 AM 50.8420 2.9810 117° Southeast 504 580 35,000  Level FlightAware ADS-B
Fri 06:14:25 AM 50.8052 3.1016 117° Southeast 498 573 35,000  Level FlightAware UK
Fri 06:14:33 AM 50.7980 3.1220 117° Southeast 502 578 35,000  Level FlightAware ADS-B
Fri 06:15:15 AM 50.7540 3.2640 116° Southeast 502 578 35,000  Level FlightAware ADS-B
Fri 06:15:55 AM 50.7122 3.3979 116° Southeast 496 571 35,000  Level FlightAware UK
Fri 06:15:59 AM 50.7100 3.4010 116° Southeast 502 578 35,000  Level FlightAware ADS-B
Fri 06:16:36 AM 50.6720 3.5220 116° Southeast 502 578 35,000  Level FlightAware ADS-B
Fri 06:17:22 AM 50.6220 3.6760 117° Southeast 501 577 35,000  Level FlightAware ADS-B
Fri 06:18:03 AM 50.5820 3.8030 116° Southeast 502 578 35,000  Level FlightAware ADS-B
Fri 06:18:44 AM 50.5380 3.9390 117° Southeast 502 578 35,000  Level FlightAware ADS-B
Fri 06:19:28 AM 50.4890 4.0880 117° Southeast 503 579 35,000  Level FlightAware ADS-B
Fri 06:20:12 AM 50.4430 4.2310 117° Southeast 504 580 35,000  Level FlightAware ADS-B
Fri 06:20:50 AM 50.4030 4.3520 117° Southeast 505 581 35,000  Level FlightAware ADS-B
Fri 06:21:32 AM 50.3580 4.4850 118° Southeast 508 585 35,000  Level FlightAware ADS-B
Fri 06:22:10 AM 50.3160 4.6120 117° Southeast 508 585 35,000  Level FlightAware ADS-B
Fri 06:22:51 AM 50.2710 4.7490 117° Southeast 509 586 35,000  Level FlightAware ADS-B
Fri 06:23:36 AM 50.2220 4.8920 118° Southeast 509 586 35,000  Level FlightAware ADS-B
Fri 06:24:15 AM 50.1800 5.0190 117° Southeast 511 588 35,000  Level FlightAware ADS-B
Fri 06:24:57 AM 50.1360 5.1490 118° Southeast 512 589 35,000  Level FlightAware ADS-B
Fri 06:25:42 AM 50.0840 5.3020 118° Southeast 512 589 35,000  Level FlightAware ADS-B
Fri 06:26:19 AM 50.0430 5.4190 119° Southeast 512 589 35,000  Level FlightAware ADS-B
Fri 06:27:02 AM 49.9930 5.5640 118° Southeast 511 588 35,000  Level FlightAware ADS-B
Fri 06:27:41 AM 49.9500 5.6870 118° Southeast 512 589 35,000  Level FlightAware ADS-B
Fri 06:28:24 AM 49.9030 5.8230 118° Southeast 512 589 35,000  Level FlightAware ADS-B
Fri 06:29:07 AM 49.8540 5.9620 119° Southeast 512 589 35,000  Level FlightAware ADS-B
Fri 06:29:51 AM 49.8020 6.1090 119° Southeast 513 590 35,000  Level FlightAware ADS-B
Fri 06:30:32 AM 49.7590 6.2320 118° Southeast 511 588 35,000  Level FlightAware ADS-B
Fri 06:31:17 AM 49.7040 6.3850 119° Southeast 511 588 35,000  Level FlightAware ADS-B
Fri 06:31:54 AM 49.6640 6.5000 118° Southeast 512 589 35,000  Level FlightAware ADS-B
Fri 06:32:37 AM 49.6140 6.6370 119° Southeast 508 585 35,000  Level FlightAware ADS-B
Fri 06:33:23 AM 49.5610 6.7800 120° Southeast 509 586 35,000  Level FlightAware ADS-B
Fri 06:34:07 AM 49.5090 6.9240 119° Southeast 509 586 35,000  Level FlightAware ADS-B
Fri 06:34:47 AM 49.4630 7.0510 119° Southeast 510 587 35,000  Level FlightAware ADS-B
Fri 06:35:27 AM 49.4170 7.1780 119° Southeast 511 588 35,000  Level FlightAware ADS-B
Fri 06:36:12 AM 49.3650 7.3180 120° Southeast 511 588 35,000  Level FlightAware ADS-B
Fri 06:36:42 AM 49.3280 7.4160 120° Southeast 510 587 35,000  Level FlightAware ADS-B
Fri 06:37:27 AM 49.2750 7.5580 120° Southeast 513 590 35,000  Level FlightAware ADS-B
Fri 06:38:08 AM 49.2280 7.6870 119° Southeast 514 592 35,000  Level FlightAware ADS-B
Fri 06:38:48 AM 49.1800 7.8090 121° Southeast 513 590 35,000  Level FlightAware ADS-B
Fri 06:39:28 AM 49.1330 7.9350 120° Southeast 512 589 35,000  Level FlightAware ADS-B
Fri 06:40:13 AM 49.0800 8.0750 120° Southeast 512 589 35,000  Level FlightAware ADS-B
Fri 06:40:58 AM 49.0270 8.2150 120° Southeast 510 587 35,000  Level FlightAware ADS-B
Fri 06:41:33 AM 48.9850 8.3230 121° Southeast 509 586 35,000 234 Level FlightAware ADS-B
Fri 06:42:15 AM 48.9330 8.4590 120° Southeast 510 587 35,300 929 Climbing FlightAware ADS-B
Fri 06:42:57 AM 48.8820 8.5890 121° Southeast 507 583 36,300 1,275 Climbing FlightAware ADS-B
Fri 06:43:35 AM 48.8310 8.6940 126° Southeast 501 577 37,000 538 Climbing FlightAware ADS-B
Fri 06:44:15 AM 48.7670 8.7880 136° Southeast 493 567 37,000  Level FlightAware ADS-B
Fri 06:44:58 AM 48.6940 8.8860 138° Southeast 492 566 37,000  Level FlightAware ADS-B
Fri 06:45:28 AM 48.6410 8.9560 139° Southeast 490 564 37,000  Level FlightAware ADS-B
Fri 06:46:13 AM 48.5640 9.0570 139° Southeast 489 563 37,000  Level FlightAware ADS-B
Fri 06:46:54 AM 48.4940 9.1490 139° Southeast 489 563 37,000  Level FlightAware ADS-B
Fri 06:47:34 AM 48.4270 9.2360 139° Southeast 489 563 37,000  Level FlightAware ADS-B
Fri 06:48:04 AM 48.3740 9.3060 139° Southeast 490 564 37,000  Level FlightAware ADS-B
Fri 06:48:49 AM 48.3010 9.4010 139° Southeast 492 566 37,000  Level FlightAware ADS-B
Fri 06:49:24 AM 48.2390 9.4810 139° Southeast 486 559 37,000  Level FlightAware ADS-B
Fri 06:50:09 AM 48.1570 9.5850 140° Southeast 493 567 37,000  Level FlightAware ADS-B
Fri 06:50:47 AM 48.0920 9.6660 140° Southeast 493 567 37,000  Level FlightAware ADS-B
Fri 06:51:23 AM 48.0300 9.7420 141° Southeast 494 568 37,000  Level FlightAware ADS-B
Fri 06:52:07 AM 47.9520 9.8400 140° Southeast 494 568 37,000  Level FlightAware ADS-B
Fri 06:52:47 AM 47.8790 9.9280 141° Southeast 494 568 37,000  Level FlightAware ADS-B
Fri 06:53:27 AM 47.8080 10.0110 142° Southeast 494 568 37,000  Level FlightAware ADS-B
Fri 06:54:10 AM 47.7330 10.1030 140° Southeast 495 570 37,000  Level FlightAware ADS-B
Fri 06:54:47 AM 47.6690 10.1800 141° Southeast 497 572 37,000  Level FlightAware ADS-B
Fri 06:55:32 AM 47.5860 10.2780 141° Southeast 498 573 37,000  Level FlightAware ADS-B
Fri 06:56:15 AM 47.5090 10.3700 141° Southeast 498 573 37,000  Level FlightAware ADS-B
Fri 06:56:53 AM 47.4410 10.4490 142° Southeast 500 575 37,000  Level FlightAware ADS-B
Fri 06:57:37 AM 47.3590 10.5460 141° Southeast 500 575 37,000  Level FlightAware ADS-B
Fri 06:58:17 AM 47.2960 10.6330 137° Southeast 503 579 37,000  Level FlightAware ADS-B
Fri 06:59:03 AM 47.2180 10.7470 135° Southeast 504 580 37,000  Level FlightAware ADS-B
Fri 06:59:43 AM 47.1540 10.8410 135° Southeast 499 574 37,000  Level FlightAware ADS-B
Fri 07:00:28 AM 47.0800 10.9490 135° Southeast 499 574 37,000  Level FlightAware ADS-B
Fri 07:01:08 AM 47.0100 11.0470 136° Southeast 499 574 37,000  Level FlightAware ADS-B
Fri 07:01:43 AM 46.9580 11.1220 135° Southeast 499 574 37,000  Level FlightAware ADS-B
Fri 07:02:27 AM 46.8770 11.2380 136° Southeast 504 580 37,000  Level FlightAware ADS-B
Fri 07:03:05 AM 46.8120 11.3310 136° Southeast 505 581 37,000  Level FlightAware ADS-B
Fri 07:03:43 AM 46.7500 11.4190 136° Southeast 505 581 37,000  Level FlightAware ADS-B
Fri 07:04:26 AM 46.6780 11.5200 136° Southeast 505 581 37,000  Level FlightAware ADS-B
Fri 07:05:04 AM 46.6110 11.6130 136° Southeast 505 581 37,000  Level FlightAware ADS-B
Fri 07:05:48 AM 46.5380 11.7160 136° Southeast 504 580 37,000  Level FlightAware ADS-B
Fri 07:06:31 AM 46.4660 11.8170 136° Southeast 504 580 37,000  Level FlightAware ADS-B
Fri 07:07:14 AM 46.3940 11.9170 136° Southeast 505 581 37,000  Level FlightAware ADS-B
Fri 07:07:57 AM 46.3190 12.0200 136° Southeast 506 582 37,000  Level FlightAware ADS-B
Fri 07:08:43 AM 46.2510 12.1140 136° Southeast 507 583 37,000  Level FlightAware ADS-B
Fri 07:09:25 AM 46.1730 12.2210 136° Southeast 507 583 37,000  Level FlightAware ADS-B
Fri 07:10:05 AM 46.1070 12.3110 137° Southeast 506 582 37,000  Level FlightAware ADS-B
Fri 07:10:45 AM 46.0390 12.4040 136° Southeast 507 583 37,000  Level FlightAware ADS-B
Fri 07:11:25 AM 45.9750 12.4900 137° Southeast 507 583 37,000  Level FlightAware ADS-B
Fri 07:12:10 AM 45.8910 12.6030 137° Southeast 507 583 37,000  Level FlightAware ADS-B
Fri 07:12:50 AM 45.8280 12.6880 137° Southeast 508 585 37,000  Level FlightAware ADS-B
Fri 07:13:30 AM 45.7570 12.7830 137° Southeast 508 585 37,000  Level FlightAware ADS-B
Fri 07:14:15 AM 45.6820 12.8880 136° Southeast 510 587 37,000  Level FlightAware ADS-B
Fri 07:14:55 AM 45.6190 12.9940 130° Southeast 513 590 37,000  Level FlightAware ADS-B
Fri 07:15:30 AM 45.5680 13.0910 127° Southeast 513 590 37,000  Level FlightAware ADS-B
Fri 07:16:10 AM 45.5130 13.1940 127° Southeast 514 592 37,000  Level FlightAware ADS-B
Fri 07:16:55 AM 45.4460 13.3200 127° Southeast 509 586 37,000  Level FlightAware ADS-B
Fri 07:17:30 AM 45.3990 13.4090 127° Southeast 509 586 37,000  Level FlightAware ADS-B
Fri 07:18:10 AM 45.3400 13.5170 128° Southeast 508 585 37,000  Level FlightAware ADS-B
Fri 07:18:55 AM 45.2770 13.6340 127° Southeast 508 585 37,000  Level FlightAware ADS-B
Fri 07:19:31 AM 45.2220 13.7360 127° Southeast 509 586 37,000  Level FlightAware ADS-B
Fri 07:20:15 AM 45.1600 13.8500 128° Southeast 510 587 37,000  Level FlightAware ADS-B
Fri 07:21:15 AM 45.0720 14.0130 127° Southeast 512 589 37,000  Level FlightAware ADS-B
Fri 07:22:06 AM 44.9960 14.1490 128° Southeast 513 590 37,000  Level FlightAware ADS-B
Fri 07:23:00 AM 44.9150 14.2960 128° Southeast 519 597 37,000  Level FlightAware ADS-B
Fri 07:23:46 AM 44.8490 14.4160 128° Southeast 520 598 37,000  Level FlightAware ADS-B
Fri 07:24:26 AM 44.7890 14.5230 128° Southeast 521 600 37,000  Level FlightAware ADS-B
Fri 07:25:12 AM 44.7230 14.6430 128° Southeast 521 600 37,000  Level FlightAware ADS-B
Fri 07:25:55 AM 44.6580 14.7570 129° Southeast 521 600 37,000  Level FlightAware ADS-B
Fri 07:26:41 AM 44.5930 14.8710 129° Southeast 523 602 37,000  Level FlightAware ADS-B
Fri 07:27:40 AM 44.5100 15.0200 128° Southeast 523 602 37,000  Level FlightAware ADS-B
Fri 07:28:15 AM 44.4510 15.1230 129° Southeast 522 601 37,000  Level FlightAware ADS-B
Fri 07:29:00 AM 44.3780 15.2500 129° Southeast 522 601 37,000  Level FlightAware ADS-B
Fri 07:29:46 AM 44.3100 15.3710 128° Southeast 517 595 37,000  Level FlightAware ADS-B
Fri 07:30:25 AM 44.2490 15.4760 129° Southeast 517 595 37,000  Level FlightAware ADS-B
Fri 07:31:05 AM 44.1930 15.5730 129° Southeast 517 595 37,000  Level FlightAware ADS-B
Fri 07:31:45 AM 44.1280 15.6860 129° Southeast 518 596 37,000  Level FlightAware ADS-B
Fri 07:32:25 AM 44.0700 15.7850 129° Southeast 519 597 37,000  Level FlightAware ADS-B
Fri 07:33:05 AM 44.0060 15.8930 129° Southeast 519 597 37,000  Level FlightAware ADS-B
Fri 07:33:45 AM 43.9480 15.9920 129° Southeast 521 600 37,000  Level FlightAware ADS-B
Fri 07:34:30 AM 43.8750 16.1170 129° Southeast 521 600 37,000  Level FlightAware ADS-B
Fri 07:35:10 AM 43.8140 16.2220 129° Southeast 521 600 37,000  Level FlightAware ADS-B
Fri 07:35:56 AM 43.7460 16.3360 130° Southeast 527 606 37,000  Level FlightAware ADS-B
Fri 07:36:35 AM 43.6830 16.4410 130° Southeast 527 606 37,000  Level FlightAware ADS-B
Fri 07:37:20 AM 43.6120 16.5600 129° Southeast 527 606 37,000  Level FlightAware ADS-B
Fri 07:38:00 AM 43.5510 16.6610 130° Southeast 527 606 37,000  Level FlightAware ADS-B
Fri 07:38:40 AM 43.4880 16.7670 129° Southeast 528 608 37,000  Level FlightAware ADS-B
Fri 07:39:25 AM 43.4180 16.8840 129° Southeast 529 609 37,000  Level FlightAware ADS-B
Fri 07:40:06 AM 43.3550 16.9870 130° Southeast 529 609 37,000  Level FlightAware ADS-B
Fri 07:40:50 AM 43.2840 17.1030 130° Southeast 528 608 37,000  Level FlightAware ADS-B
Fri 07:41:30 AM 43.2210 17.2050 130° Southeast 528 608 37,000  Level FlightAware ADS-B
Fri 07:42:16 AM 43.1510 17.3210 130° Southeast 528 608 37,000  Level FlightAware ADS-B
Fri 07:42:55 AM 43.0890 17.4230 130° Southeast 528 608 37,000 286 Level FlightAware ADS-B
Fri 07:43:40 AM 43.0160 17.5400 130° Southeast 528 608 37,400 815 Climbing FlightAware ADS-B
Fri 07:44:16 AM 42.9620 17.6260 131° Southeast 526 605 38,100 975 Climbing FlightAware ADS-B
Fri 07:45:00 AM 42.8930 17.7380 130° Southeast 526 605 38,700 643 Climbing FlightAware ADS-B
Fri 07:45:40 AM 42.8300 17.8390 130° Southeast 527 606 39,000 212 Climbing FlightAware ADS-B
Fri 07:46:25 AM 42.7570 17.9550 131° Southeast 526 605 39,000  Level FlightAware ADS-B
Fri 07:47:06 AM 42.6910 18.0600 131° Southeast 525 604 39,000  Level FlightAware ADS-B
Fri 07:47:51 AM 42.6190 18.1730 131° Southeast 524 603 39,000  Level FlightAware ADS-B
Fri 07:48:31 AM 42.5550 18.2720 131° Southeast 524 603 39,000  Level FlightAware ADS-B
Fri 07:49:13 AM 42.4830 18.3650 136° Southeast 524 603 39,000  Level FlightAware ADS-B
Fri 07:49:57 AM 42.4050 18.4660 136° Southeast 526 605 39,000  Level FlightAware ADS-B
Fri 07:50:37 AM 42.3340 18.5550 137° Southeast 527 606 39,000  Level FlightAware ADS-B
Fri 07:51:17 AM 42.2640 18.6460 136° Southeast 529 609 39,000  Level FlightAware ADS-B
Fri 07:52:02 AM 42.1840 18.7480 137° Southeast 530 610 39,000  Level FlightAware ADS-B
Fri 07:52:46 AM 42.1060 18.8490 136° Southeast 532 612 39,000  Level FlightAware ADS-B
Fri 07:53:26 AM 42.0320 18.9420 137° Southeast 534 615 39,000  Level FlightAware ADS-B
Fri 07:54:06 AM 41.9610 19.0340 136° Southeast 534 615 39,000  Level FlightAware ADS-B
Fri 07:54:50 AM 41.8820 19.1340 137° Southeast 534 615 39,000  Level FlightAware ADS-B
Fri 07:55:30 AM 41.8120 19.2230 137° Southeast 534 615 39,000  Level FlightAware ADS-B
Fri 07:56:14 AM 41.7320 19.3250 136° Southeast 533 613 39,000  Level FlightAware ADS-B
Fri 07:56:54 AM 41.6630 19.4190 134° Southeast 533 613 39,000  Level FlightAware ADS-B
Fri 07:57:38 AM 41.5870 19.5200 135° Southeast 533 613 39,000  Level FlightAware ADS-B
Fri 07:58:18 AM 41.5170 19.6130 135° Southeast 533 613 39,000  Level FlightAware ADS-B
Fri 07:59:02 AM 41.4400 19.7150 135° Southeast 533 613 39,000  Level FlightAware ADS-B
Fri 07:59:44 AM 41.3670 19.8120 135° Southeast 534 615 39,000  Level FlightAware ADS-B
Fri 08:00:58 AM 41.2590 19.9530 136° Southeast 535 616 39,000  Level FlightAware ADS-B
Fri 08:01:43 AM 41.1580 20.0860 135° Southeast 535 616 39,000  Level FlightAware ADS-B
Fri 08:02:20 AM 41.0930 20.1690 136° Southeast 535 616 39,000  Level FlightAware ADS-B
Fri 08:02:56 AM 41.0280 20.2540 135° Southeast 535 616 39,000  Level FlightAware ADS-B
Fri 08:03:41 AM 40.9480 20.3590 135° Southeast 534 615 39,000  Level FlightAware ADS-B
Fri 08:04:09 AM 40.8980 20.4230 136° Southeast 533 613 39,000  Level FlightAware ADS-B
Fri 08:04:49 AM 40.8270 20.5140 136° Southeast 533 613 39,000  Level FlightAware ADS-B
Fri 08:05:33 AM 40.7510 20.6110 136° Southeast 531 611 39,000  Level FlightAware ADS-B
Fri 08:06:17 AM 40.6730 20.7100 136° Southeast 529 609 39,000  Level FlightAware ADS-B
Fri 08:06:57 AM 40.6020 20.8000 136° Southeast 528 608 39,000  Level FlightAware ADS-B
Fri 08:07:39 AM 40.5280 20.8960 135° Southeast 527 606 39,000  Level FlightAware ADS-B
Fri 08:08:19 AM 40.4580 20.9820 137° Southeast 527 606 39,000  Level FlightAware ADS-B
Fri 08:09:05 AM 40.3720 21.0810 139° Southeast 527 606 39,000  Level FlightAware ADS-B
Fri 08:09:45 AM 40.2980 21.1650 139° Southeast 527 606 39,000  Level FlightAware ADS-B
Fri 08:10:29 AM 40.2190 21.2590 138° Southeast 527 606 39,000  Level FlightAware ADS-B
Fri 08:11:09 AM 40.1480 21.3460 137° Southeast 527 606 39,000  Level FlightAware ADS-B
Fri 08:11:44 AM 40.0930 21.4130 137° Southeast 527 606 39,000  Level FlightAware ADS-B
Fri 08:12:23 AM 40.0160 21.5050 138° Southeast 526 605 39,000  Level FlightAware ADS-B
Fri 08:13:07 AM 39.9360 21.6000 138° Southeast 525 604 39,000  Level FlightAware ADS-B
Fri 08:13:47 AM 39.8650 21.6830 138° Southeast 524 603 39,000  Level FlightAware ADS-B
Fri 08:14:33 AM 39.7830 21.7820 137° Southeast 523 602 39,000  Level FlightAware ADS-B
Fri 08:15:13 AM 39.7100 21.8670 138° Southeast 523 602 39,000  Level FlightAware ADS-B
Fri 08:15:57 AM 39.6310 21.9590 138° Southeast 523 602 39,000  Level FlightAware ADS-B
Fri 08:16:29 AM 39.5740 22.0270 137° Southeast 523 602 39,000  Level FlightAware ADS-B
Fri 08:17:13 AM 39.4960 22.1190 138° Southeast 522 601 39,000  Level FlightAware ADS-B
Fri 08:17:53 AM 39.4220 22.2050 138° Southeast 521 600 39,000  Level FlightAware ADS-B
Fri 08:18:29 AM 39.3590 22.2780 138° Southeast 521 600 39,000  Level FlightAware ADS-B
Fri 08:19:13 AM 39.2810 22.3690 138° Southeast 520 598 39,000  Level FlightAware ADS-B
Fri 08:19:53 AM 39.2080 22.4520 139° Southeast 520 598 39,000  Level FlightAware ADS-B
Fri 08:20:27 AM 39.1490 22.5200 138° Southeast 520 598 39,000  Level FlightAware ADS-B
Fri 08:21:11 AM 39.0690 22.6130 138° Southeast 520 598 39,000  Level FlightAware ADS-B
Fri 08:21:55 AM 38.9910 22.7010 139° Southeast 519 597 39,000  Level FlightAware ADS-B
Fri 08:22:34 AM 38.9200 22.7810 139° Southeast 517 595 39,000  Level FlightAware ADS-B
Fri 08:23:18 AM 38.8410 22.8730 138° Southeast 517 595 39,000  Level FlightAware ADS-B
Fri 08:24:00 AM 38.7670 22.9560 139° Southeast 515 593 39,000  Level FlightAware ADS-B
Fri 08:24:41 AM 38.6930 23.0410 138° Southeast 515 593 39,000  Level FlightAware ADS-B
Fri 08:25:21 AM 38.6220 23.1220 138° Southeast 515 593 39,000  Level FlightAware ADS-B
Fri 08:25:57 AM 38.5570 23.1950 139° Southeast 515 593 39,000  Level FlightAware ADS-B
Fri 08:26:42 AM 38.4750 23.2850 139° Southeast 514 592 39,000  Level FlightAware ADS-B
Fri 08:27:22 AM 38.4050 23.3650 138° Southeast 514 592 39,000  Level FlightAware ADS-B
Fri 08:28:02 AM 38.3330 23.4450 139° Southeast 515 593 39,000  Level FlightAware ADS-B
Fri 08:28:47 AM 38.2520 23.5350 139° Southeast 515 593 39,000  Level FlightAware ADS-B
Fri 08:29:23 AM 38.1890 23.6070 138° Southeast 515 593 39,000  Level FlightAware ADS-B
Fri 08:30:05 AM 38.1150 23.6890 139° Southeast 516 594 39,000  Level FlightAware ADS-B
Fri 08:30:51 AM 38.0290 23.7820 140° Southeast 518 596 39,000  Level FlightAware ADS-B
Fri 08:31:34 AM 37.9540 23.8660 139° Southeast 519 597 39,000  Level FlightAware ADS-B
Fri 08:32:15 AM 37.8770 23.9510 139° Southeast 522 601 39,000  Level FlightAware ADS-B
Fri 08:32:59 AM 37.8160 24.0610 125° Southeast 528 608 39,000  Level FlightAware ADS-B
Fri 08:33:38 AM 37.7660 24.1610 122° Southeast 532 612 39,000  Level FlightAware ADS-B
Fri 08:34:20 AM 37.7080 24.2720 123° Southeast 533 613 39,000  Level FlightAware ADS-B
Fri 08:35:04 AM 37.6450 24.3860 125° Southeast 537 618 39,000  Level FlightAware ADS-B
Fri 08:35:44 AM 37.5930 24.4910 122° Southeast 540 621 39,000  Level FlightAware ADS-B
Fri 08:36:28 AM 37.5350 24.6070 122° Southeast 544 626 39,000  Level FlightAware ADS-B
Fri 08:37:11 AM 37.4760 24.7250 122° Southeast 545 627 39,000  Level FlightAware ADS-B
Fri 08:37:51 AM 37.4210 24.8320 123° Southeast 546 628 39,000  Level FlightAware ADS-B
Fri 08:38:36 AM 37.3600 24.9520 123° Southeast 547 629 39,000  Level FlightAware ADS-B
Fri 08:39:17 AM 37.3040 25.0620 123° Southeast 547 629 39,000  Level FlightAware ADS-B
Fri 08:39:55 AM 37.2510 25.1630 123° Southeast 547 629 39,000  Level FlightAware ADS-B
Fri 08:40:41 AM 37.1890 25.2850 123° Southeast 545 627 39,000  Level FlightAware ADS-B
Fri 08:41:21 AM 37.1340 25.3910 123° Southeast 541 623 39,000  Level FlightAware ADS-B
Fri 08:42:05 AM 37.0740 25.5070 123° Southeast 540 621 39,000  Level FlightAware ADS-B
Fri 08:42:45 AM 37.0200 25.6110 123° Southeast 540 621 39,000  Level FlightAware ADS-B
Fri 08:43:27 AM 36.9620 25.7210 123° Southeast 540 621 39,000  Level FlightAware ADS-B
Fri 08:43:59 AM 36.9190 25.8050 123° Southeast 539 620 39,000  Level FlightAware ADS-B
Fri 08:44:39 AM 36.8630 25.9110 123° Southeast 538 619 39,000  Level FlightAware ADS-B
Fri 08:45:07 AM 36.8260 25.9810 123° Southeast 537 618 39,000  Level FlightAware ADS-B
Fri 08:45:51 AM 36.7670 26.0960 123° Southeast 536 617 39,000  Level FlightAware ADS-B
Fri 08:46:29 AM 36.7150 26.1930 124° Southeast 535 616 39,000  Level FlightAware ADS-B
Fri 08:47:15 AM 36.6520 26.3120 123° Southeast 534 615 39,000  Level FlightAware ADS-B
Fri 08:47:54 AM 36.5990 26.4090 124° Southeast 535 616 39,000  Level FlightAware ADS-B
Fri 08:48:37 AM 36.5400 26.5220 123° Southeast 536 617 39,000  Level FlightAware ADS-B
Fri 08:49:19 AM 36.4820 26.6300 124° Southeast 537 618 39,000  Level FlightAware ADS-B
Fri 08:50:03 AM 36.4210 26.7430 124° Southeast 538 619 39,000  Level FlightAware ADS-B
Fri 08:50:43 AM 36.3660 26.8460 124° Southeast 539 620 39,000  Level FlightAware ADS-B
Fri 08:51:21 AM 36.3120 26.9460 124° Southeast 540 621 39,000  Level FlightAware ADS-B
Fri 08:52:36 AM 36.2110 27.1310 124° Southeast 536 617 39,000  Level FlightAware ADS-B
Fri 08:53:19 AM 36.1570 27.2300 124° Southeast 536 617 39,000  Level FlightAware ADS-B
Fri 08:54:07 AM 36.0900 27.3520 124° Southeast 542 624 39,000  Level FlightAware ADS-B
Fri 08:55:03 AM 36.0080 27.5030 124° Southeast 543 625 39,000  Level FlightAware ADS-B
Fri 08:55:44 AM 35.9450 27.6160 125° Southeast 544 626 39,000  Level FlightAware ADS-B
Fri 08:56:28 AM 35.8810 27.7310 124° Southeast 544 626 39,000  Level FlightAware ADS-B
Fri 08:57:09 AM 35.8290 27.8260 124° Southeast 543 625 39,000  Level FlightAware ADS-B
Fri 08:57:59 AM 35.7550 27.9590 124° Southeast 541 623 39,000  Level FlightAware ADS-B
Fri 08:58:38 AM 35.7090 28.0430 124° Southeast 541 623 39,000  Level FlightAware ADS-B
Fri 08:59:18 AM 35.6410 28.1640 125° Southeast 540 621 39,000  Level FlightAware ADS-B
Fri 09:00:04 AM 35.5750 28.2800 125° Southeast 538 619 39,000  Level FlightAware ADS-B
Fri 09:00:46 AM 35.5150 28.3860 125° Southeast 537 618 39,000  Level FlightAware ADS-B
Fri 09:01:30 AM 35.4530 28.4960 125° Southeast 536 617 39,000  Level FlightAware ADS-B
Fri 09:02:12 AM 35.3940 28.6000 125° Southeast 534 615 39,000  Level FlightAware ADS-B
Fri 09:02:52 AM 35.3380 28.6990 125° Southeast 534 615 39,000  Level FlightAware ADS-B
Fri 09:03:32 AM 35.2810 28.7990 125° Southeast 533 613 39,000  Level FlightAware ADS-B
Fri 09:04:09 AM 35.2300 28.8880 125° Southeast 535 616 39,000  Level FlightAware ADS-B
Fri 09:04:59 AM 35.1710 28.9950 124° Southeast 535 616 39,000  Level FlightAware ADS-B
Fri 09:05:34 AM 35.1080 29.1010 126° Southeast 535 616 39,000  Level FlightAware ADS-B
Fri 09:06:19 AM 35.0520 29.1980 125° Southeast 535 616 39,000  Level FlightAware ADS-B
Fri 09:07:19 AM 34.9800 29.3240 125° Southeast 535 616 39,000  Level FlightAware ADS-B
Fri 09:07:59 AM 34.9040 29.4530 126° Southeast 531 611 39,000  Level FlightAware ADS-B
Fri 09:08:44 AM 34.8390 29.5650 125° Southeast 530 610 39,000  Level FlightAware ADS-B
Fri 09:09:24 AM 34.7820 29.6620 126° Southeast 530 610 39,000  Level FlightAware ADS-B
Fri 09:10:00 AM 34.7320 29.7470 126° Southeast 531 611 39,000  Level FlightAware ADS-B
Fri 09:10:50 AM 34.6620 29.8670 125° Southeast 528 608 39,000  Level FlightAware ADS-B
Fri 09:11:27 AM 34.6200 29.9450 123° Southeast 528 608 39,000  Level FlightAware ADS-B
Fri 09:12:06 AM 34.5650 30.0550 121° Southeast 533 613 39,000  Level FlightAware ADS-B
Fri 09:12:52 AM 34.5040 30.1830 120° Southeast 534 615 39,000  Level FlightAware ADS-B
Fri 09:13:31 AM 34.4540 30.2870 120° Southeast 533 613 39,000  Level FlightAware ADS-B
Fri 09:14:17 AM 34.3970 30.4030 121° Southeast 528 608 39,000  Level FlightAware ADS-B
Fri 09:14:58 AM 34.3470 30.5090 120° Southeast 526 605 39,000  Level FlightAware ADS-B
Fri 09:15:43 AM 34.2920 30.6230 120° Southeast 523 602 39,000  Level FlightAware ADS-B
Fri 09:16:24 AM 34.2410 30.7280 120° Southeast 522 601 39,000  Level FlightAware ADS-B
Fri 09:17:04 AM 34.1900 30.8310 121° Southeast 519 597 39,000  Level FlightAware ADS-B
Fri 09:17:44 AM 34.1420 30.9320 120° Southeast 518 596 39,000  Level FlightAware ADS-B
Fri 09:18:29 AM 34.0860 31.0440 121° Southeast 515 593 39,000  Level FlightAware ADS-B
Fri 09:19:09 AM 34.0360 31.1430 121° Southeast 514 592 39,000  Level FlightAware ADS-B
Fri 09:19:50 AM 33.9870 31.2450 120° Southeast 513 590 39,000  Level FlightAware ADS-B
Fri 09:20:45 AM 33.9180 31.3830 121° Southeast 512 589 39,000  Level FlightAware ADS-B
Fri 09:21:20 AM 33.8760 31.4670 121° Southeast 507 583 39,000  Level FlightAware ADS-B
Fri 09:22:06 AM 33.8220 31.5760 121° Southeast 496 571 39,000  Level FlightAware ADS-B
Fri 09:22:46 AM 33.7750 31.6710 121° Southeast 489 563 39,000  Level FlightAware ADS-B
Fri 09:23:31 AM 33.7210 31.7790 121° Southeast 488 562 39,000  Level FlightAware ADS-B
Fri 09:24:11 AM 33.6740 31.8720 121° Southeast 488 562 39,000  Level FlightAware ADS-B
Fri 09:24:52 AM 33.6260 31.9650 122° Southeast 487 560 39,000  Level FlightAware ADS-B
Fri 09:25:28 AM 33.5840 32.0490 121° Southeast 487 560 39,000  Level FlightAware ADS-B
Fri 09:26:08 AM 33.5390 32.1380 121° Southeast 491 565 39,000  Level FlightAware ADS-B
Fri 09:26:54 AM 33.4830 32.2490 121° Southeast 491 565 39,000  Level FlightAware ADS-B
Fri 09:27:34 AM 33.4350 32.3420 122° Southeast 491 565 39,000  Level FlightAware ADS-B
Fri 09:28:15 AM 33.3900 32.4330 121° Southeast 490 564 39,000 -506 Level FlightAware ADS-B
Fri 09:28:57 AM 33.3390 32.5300 122° Southeast 491 565 38,300 -1,186 Descending FlightAware ADS-B
Fri 09:29:41 AM 33.2840 32.6360 122° Southeast 493 567 37,300 -1,188 Descending FlightAware ADS-B
Fri 09:30:38 AM 33.2250 32.7530 121° Southeast 499 574 36,300 -1,226 Descending FlightAware ADS-B
Fri 09:31:14 AM 33.1770 32.8470 121° Southeast 502 578 35,400 -1,317 Descending FlightAware ADS-B
Fri 09:32:00 AM 33.1190 32.9560 122° Southeast 507 583 34,500 -1,281 Descending FlightAware ADS-B
Fri 09:32:43 AM 33.0610 33.0680 122° Southeast 510 587 33,500 -1,034 Descending FlightAware ADS-B
Fri 09:33:27 AM 33.0070 33.1730 121° Southeast 510 587 33,000 -506 Descending FlightAware ADS-B
Fri 09:34:06 AM 32.9600 33.2640 122° Southeast 507 583 32,800 -1,931 Descending FlightAware ADS-B
Fri 09:34:54 AM 32.9000 33.3750 123° Southeast 512 589 30,200 -2,452 Descending FlightAware ADS-B
Fri 09:35:39 AM 32.8410 33.4890 122° Southeast 507 583 29,000 -847 Descending FlightAware ADS-B
Fri 09:36:19 AM 32.7910 33.5850 122° Southeast 502 578 29,000 -847 Level FlightAware ADS-B
Fri 09:37:04 AM 32.7370 33.6870 122° Southeast 494 568 27,800 -2,069 Descending FlightAware ADS-B
Fri 09:37:46 AM 32.6860 33.7820 123° Southeast 481 554 26,000 -2,444 Descending FlightAware ADS-B
Fri 09:38:25 AM 32.6410 33.8680 122° Southeast 465 535 24,500 -1,786 Descending FlightAware ADS-B
Fri 09:39:10 AM 32.5920 33.9600 122° Southeast 433 498 23,500 -1,169 Descending FlightAware ADS-B
Fri 09:39:42 AM 32.5580 34.0220 123° Southeast 411 473 23,000 -1,000 Descending FlightAware ADS-B
Fri 09:40:22 AM 32.5200 34.0960 121° Southeast 387 445 22,300 -1,379 Descending FlightAware ADS-B
Fri 09:41:09 AM 32.4730 34.1800 124° Southeast 374 430 21,000 -1,729 Descending FlightAware ADS-B
Fri 09:41:21 AM 32.4600 34.1980 131° Southeast 362 417 20,600 -1,778 Descending FlightAware ADS-B
Fri 09:41:36 AM 32.4390 34.2130 149° Southeast 351 404 20,200 -1,521 Descending FlightAware ADS-B
Fri 09:42:32 AM 32.3620 34.2010 187° South 324 373 18,800 -1,565 Descending FlightAware ADS-B
Fri 09:43:08 AM 32.3330 34.1460 238° Southwest 319 367 17,800 -1,765 Descending FlightAware ADS-B
Fri 09:43:40 AM 32.3390 34.0880 277° West 319 367 16,800 -1,622 Descending FlightAware ADS-B
Fri 09:44:22 AM 32.3730 34.0260 303° West 314 361 15,800 -1,500 Descending FlightAware ADS-B
Fri 09:44:44 AM 32.4000 34.0060 328° Northwest 314 361 15,200 -1,459 Descending FlightAware ADS-B
Fri 09:44:59 AM 32.4200 34.0010 348° North 316 364 14,900 -1,571 Descending FlightAware ADS-B
Fri 09:45:26 AM 32.4600 34.0180 20° North 323 372 14,100 -1,579 Descending FlightAware ADS-B
Fri 09:45:56 AM 32.4810 34.0610 60° Northeast 326 375 13,400 -1,455 Descending FlightAware ADS-B
Fri 09:46:32 AM 32.4690 34.1210 103° East 319 367 12,500 -1,421 Descending FlightAware ADS-B
Fri 09:47:12 AM 32.4320 34.1750 129° Southeast 311 358 11,600 -1,317 Descending FlightAware ADS-B
Fri 09:47:54 AM 32.3920 34.2300 131° Southeast 303 349 10,700 -651 Descending FlightAware ADS-B
Fri 09:48:35 AM 32.3620 34.2740 129° Southeast 303 349 10,700 -1,357 Level FlightAware ADS-B
Fri 09:49:18 AM 32.3180 34.3360 130° Southeast 296 341 8,800 -2,339 Descending FlightAware ADS-B
Fri 09:49:34 AM 32.3040 34.3550 131° Southeast 295 339 8,400 -1,176 Descending FlightAware ADS-B
Fri 09:50:09 AM 32.2790 34.3900 130° Southeast 294 338 7,800 -590 Descending FlightAware ADS-B
Fri 09:50:35 AM 32.2600 34.4180 129° Southeast 294 338 7,800 -1,444 Level FlightAware ADS-B
Fri 09:51:03 AM 32.2330 34.4570 129° Southeast 294 338 6,500 -1,944 Descending FlightAware ADS-B
Fri 09:51:46 AM 32.2000 34.5170 123° Southeast 288 331 5,500 -847 Descending FlightAware ADS-B
Fri 09:52:28 AM 32.1730 34.5660 123° Southeast 289 333 5,300 -143 Descending FlightAware ADS-B
Fri 09:53:10 AM 32.1390 34.6310 122° Southeast 273 314 5,300  Level FlightAware ADS-B
Fri 09:53:28 AM 32.1290 34.6500 122° Southeast 259 298 5,300  Level FlightAware ADS-B
Fri 09:53:56 AM 32.1110 34.6820 124° Southeast 259 298 5,300  Level FlightAware ADS-B
Fri 09:54:27 AM 32.0900 34.7210 122° Southeast 257 296 5,300  Level FlightAware ADS-B
Fri 09:54:55 AM 32.0720 34.7550 122° Southeast 258 297 5,300  Level FlightAware ADS-B
Fri 09:55:07 AM 32.0630 34.7710 124° Southeast 258 297 5,300 -250 Level FlightAware ADS-B
Fri 09:55:43 AM 32.0360 34.8030 135° Southeast 239 275 5,100 -375 Descending FlightAware ADS-B
Fri 09:55:55 AM 32.0260 34.8150 135° Southeast 239 275 5,000 -486 Descending FlightAware ADS-B
Fri 09:56:20 AM 32.0060 34.8370 137° Southeast 240 276 4,800 -1,091 Descending FlightAware ADS-B
Fri 09:56:50 AM 31.9810 34.8650 136° Southeast 242 278 4,000 -1,750 Descending FlightAware ADS-B
Fri 09:57:08 AM 31.9730 34.8870 113° Southeast 238 274 3,400 -1,429 Descending FlightAware ADS-B
Fri 09:57:32 AM 31.9770 34.9140 80° East 216 249 3,000 -1,000 Descending FlightAware ADS-B
Fri 09:58:02 AM 31.9850 34.9460 74° East 186 214 2,500 -964 Descending FlightAware ADS-B
Fri 09:58:28 AM 31.9970 34.9620 49° Northeast 176 203 2,100 -659 Descending FlightAware ADS-B
Fri 09:59:33 AM 31.9870 34.9560 207° Southwest 183 211 1,500 -884 Descending FlightAware ADS-B
Fri 10:00:03 AM 32.0200 34.9100 310° West 146 168 700 -1,600 Descending FlightAware ADS-B
Fri 10:01:07 AM 32.0150 34.8730 261° West 24 28 -656 Descending FlightAware ADS-B
Fri 10:01:19 AM 32.0140 34.8720 220° Southwest 16 18  Level FlightAware ADS-B
Fri 10:01:38 AM 32.0130 34.8710 220° Southwest 12 14  Level FlightAware ADS-B
Fri 10:01:56 AM 32.0120 34.8710 180° South 10 12  Level FlightAware ADS-B
Fri 10:02:21 AM 32.0110 34.8700 220° Southwest 11 13  Level FlightAware ADS-B

Login

Don't have an account? Register now (free) for customized features, flight alerts, and more!